Rechercher aéroport 
image banner adimage banner ad
image banner ad

SSPF - Fazenda São Rafael Airport

Situé à São José Das Palmeiras, Brazil

ICAO - SSPF, IATA -

Données fournies par Airmate  

Information générale

Coordonnées: S5°4'14" W42°30'35"
Élévation : 738 feet MSL.
Variation magnétique : -21° East
Voir autres Aéroports à Piauí

Données opérationnelles

Accessible au public
Heure actuelle UTC:
Heure actuelle locale:
METAR: SBTE 252300Z 18007KT 9999 -TSRA SCT025 FEW030CB BKN100 24/21 Q1010
TAF: TAF SBTE 251500Z 2518/2606 16005KT 9999 SCT020 TX32/2519Z TN24/2606Z BECMG 2521/2523 31005KT BECMG 2600/2602 01005KT CAVOK RMK PGY
Voir NOTAMs / SUP AIP / TFR affectant cet aéroport [VIEW]
Fréquences de communication: [VIEW]

Pistes:

Identifiant RWYQFULongueur (ft)Largeur (ft)SurfaceLDA (ft)
17328078GRASS
35328078GRASS

Coordonnées de l'aéroport

Adresse: São José Das Palmeiras Brazil

Vue satellite de SSPF